Terminal Aerodrome Forecast
Issued by NWS

Current Version | Previous Version | Graphics & Text | Print | Product List | Glossary On
Versions: 1 2 3 4 5 6 7 8 9 10 11 12 13 14 15 16 17 18 19 20 21 22 23 24 25 26
000
FTUS41 KILN 261837 AAA
TAFLCK
TAF AMD
KLCK 261837Z 2619/2718 27012KT P6SM VCTS BKN050CB
      TEMPO 2619/2620 30018G30KT 3SM TSRA BKN030CB
     FM262200 01008KT P6SM SCT030 BKN100
     FM270200 02009KT P6SM BKN025=

USA.gov is the U.S. government's official web portal to all federal, state and local government web resources and services.